map of KLF home
KLF - Airport
Location
City:  Kaluga, Kaluzhskaya, Russian Federation (Russia)
Name:Grabtsevo Airport
ICAO:UUBC
IATA:KLF

Details
Type:Airport (Aerodrome, Airfield)
Use:Public/Civil
Latitude:5432'54"N (54.548333)
Longitude:3622'16"E (36.371111)
Elevation:659 ft (201 m)
Variation:10.17E (WMM2015 magnetic declination)
0.12 annual change
Runways:1
Longest:7218 × 148 ft (2200 × 45 m), paved

Weather
METAR:UUBC 091300Z VRB01MPS 6000 -SN OVC008 M02/M03 Q0998 R31/850260 TEMPO 2000 SN FZDZ BKN005 RMK QFE732/0976

Related Locations
Nearby:
Farthest:CHT: 10795 mi / 17373 km
Waitangi [Tuuta], CIT, NZ

Find:

   beyond  
but within

Other Information
Maps:
NOTAMs:
Links:
Sources:

  
flag of Russian Federation (Russia)
flag of Kaluzhskaya
  

Airport Diagram

Airport diagram for KLF

Airport diagram PDF from AIP of the Russian Federation

Sectional Chart

Flight Planning
at skyvector.com

Satellite Image

Google Maps Satellite view

Yandex Maps Satellite view


 

Copyright © 2004-2016 Karl L. Swartz. All rights reserved.
The Great Circle Mapper name and logo are trademarks of the Great Circle Mapper.
All other trademarks mentioned herein belong to their respective owners.
Please see credits for attibutions and further copyright information.

  Follow gcmap on Facebook Follow gcmap on Twitter Follow gcmap on Google+ GCmap on LinkedIn

hCard Microformat

Geo Microformat